sensor_id;sensor_type;location;lat;lon;timestamp;P1;durP1;ratioP1;P2;durP2;ratioP2
18689;SDS011;9782;52.930;15.562;2023-04-07T00:02:10;10.87;;;6.67;;
18689;SDS011;9782;52.930;15.562;2023-04-07T00:04:37;10.67;;;6.10;;
18689;SDS011;9782;52.930;15.562;2023-04-07T00:07:04;9.93;;;5.70;;
18689;SDS011;9782;52.930;15.562;2023-04-07T00:09:31;9.27;;;5.83;;
18689;SDS011;9782;52.930;15.562;2023-04-07T00:11:59;12.03;;;5.67;;
18689;SDS011;9782;52.930;15.562;2023-04-07T00:14:26;8.30;;;5.77;;
18689;SDS011;9782;52.930;15.562;2023-04-07T00:16:53;9.93;;;5.90;;
18689;SDS011;9782;52.930;15.562;2023-04-07T00:19:20;9.60;;;6.27;;
18689;SDS011;9782;52.930;15.562;2023-04-07T00:21:47;12.07;;;6.20;;
18689;SDS011;9782;52.930;15.562;2023-04-07T00:24:14;9.50;;;5.73;;
18689;SDS011;9782;52.930;15.562;2023-04-07T00:26:41;9.83;;;6.17;;
18689;SDS011;9782;52.930;15.562;2023-04-07T00:29:09;9.00;;;6.10;;
18689;SDS011;9782;52.930;15.562;2023-04-07T00:31:36;10.33;;;5.70;;
18689;SDS011;9782;52.930;15.562;2023-04-07T00:34:02;8.87;;;6.10;;
18689;SDS011;9782;52.930;15.562;2023-04-07T00:36:30;9.13;;;6.30;;
18689;SDS011;9782;52.930;15.562;2023-04-07T00:38:57;11.07;;;5.70;;
18689;SDS011;9782;52.930;15.562;2023-04-07T00:41:24;9.80;;;6.17;;
18689;SDS011;9782;52.930;15.562;2023-04-07T00:43:51;11.90;;;6.60;;
18689;SDS011;9782;52.930;15.562;2023-04-07T00:46:19;10.20;;;6.03;;
18689;SDS011;9782;52.930;15.562;2023-04-07T00:48:47;10.70;;;6.10;;
18689;SDS011;9782;52.930;15.562;2023-04-07T00:51:14;10.93;;;6.40;;
18689;SDS011;9782;52.930;15.562;2023-04-07T00:53:41;9.07;;;5.90;;
18689;SDS011;9782;52.930;15.562;2023-04-07T00:56:08;10.00;;;6.03;;
18689;SDS011;9782;52.930;15.562;2023-04-07T00:58:35;8.23;;;5.77;;
18689;SDS011;9782;52.930;15.562;2023-04-07T01:01:03;9.27;;;6.23;;
18689;SDS011;9782;52.930;15.562;2023-04-07T01:03:35;9.93;;;6.07;;
18689;SDS011;9782;52.930;15.562;2023-04-07T01:06:10;9.77;;;6.23;;
18689;SDS011;9782;52.930;15.562;2023-04-07T01:08:41;10.17;;;6.30;;
18689;SDS011;9782;52.930;15.562;2023-04-07T01:11:16;9.77;;;6.50;;
18689;SDS011;9782;52.930;15.562;2023-04-07T01:13:48;10.87;;;6.60;;
18689;SDS011;9782;52.930;15.562;2023-04-07T01:16:18;13.27;;;6.60;;
18689;SDS011;9782;52.930;15.562;2023-04-07T01:18:51;10.57;;;6.83;;
18689;SDS011;9782;52.930;15.562;2023-04-07T01:21:20;10.77;;;6.47;;
18689;SDS011;9782;52.930;15.562;2023-04-07T01:23:54;10.93;;;6.90;;
18689;SDS011;9782;52.930;15.562;2023-04-07T01:26:31;11.43;;;6.47;;
18689;SDS011;9782;52.930;15.562;2023-04-07T01:31:59;12.63;;;6.50;;
18689;SDS011;9782;52.930;15.562;2023-04-07T01:34:28;11.37;;;6.73;;
18689;SDS011;9782;52.930;15.562;2023-04-07T01:36:56;11.60;;;6.67;;
18689;SDS011;9782;52.930;15.562;2023-04-07T01:39:26;11.87;;;7.07;;
18689;SDS011;9782;52.930;15.562;2023-04-07T01:41:54;8.73;;;6.40;;
18689;SDS011;9782;52.930;15.562;2023-04-07T01:44:22;12.77;;;7.60;;
18689;SDS011;9782;52.930;15.562;2023-04-07T01:46:52;15.33;;;8.03;;
18689;SDS011;9782;52.930;15.562;2023-04-07T01:49:20;12.47;;;7.17;;
18689;SDS011;9782;52.930;15.562;2023-04-07T01:51:48;12.00;;;7.50;;
18689;SDS011;9782;52.930;15.562;2023-04-07T01:54:16;16.27;;;7.80;;
18689;SDS011;9782;52.930;15.562;2023-04-07T01:56:43;13.90;;;7.63;;
18689;SDS011;9782;52.930;15.562;2023-04-07T01:59:10;13.17;;;8.27;;
18689;SDS011;9782;52.930;15.562;2023-04-07T02:01:37;14.27;;;8.00;;
18689;SDS011;9782;52.930;15.562;2023-04-07T02:04:07;16.83;;;9.60;;
18689;SDS011;9782;52.930;15.562;2023-04-07T02:06:39;17.33;;;9.90;;
18689;SDS011;9782;52.930;15.562;2023-04-07T02:09:09;21.70;;;11.33;;
18689;SDS011;9782;52.930;15.562;2023-04-07T02:11:38;24.23;;;12.43;;
18689;SDS011;9782;52.930;15.562;2023-04-07T02:14:07;21.63;;;11.80;;
18689;SDS011;9782;52.930;15.562;2023-04-07T02:16:35;17.73;;;9.33;;
18689;SDS011;9782;52.930;15.562;2023-04-07T02:19:02;14.60;;;8.50;;
18689;SDS011;9782;52.930;15.562;2023-04-07T02:21:32;13.37;;;7.83;;
18689;SDS011;9782;52.930;15.562;2023-04-07T02:24:00;14.40;;;8.70;;
18689;SDS011;9782;52.930;15.562;2023-04-07T02:26:31;11.80;;;7.87;;
18689;SDS011;9782;52.930;15.562;2023-04-07T02:28:58;9.33;;;6.67;;
18689;SDS011;9782;52.930;15.562;2023-04-07T02:31:25;11.50;;;6.40;;
18689;SDS011;9782;52.930;15.562;2023-04-07T02:33:52;10.27;;;6.37;;
18689;SDS011;9782;52.930;15.562;2023-04-07T02:36:19;10.10;;;6.43;;
18689;SDS011;9782;52.930;15.562;2023-04-07T02:38:47;10.37;;;6.90;;
18689;SDS011;9782;52.930;15.562;2023-04-07T02:41:14;11.30;;;6.53;;
18689;SDS011;9782;52.930;15.562;2023-04-07T02:43:41;11.97;;;6.60;;
18689;SDS011;9782;52.930;15.562;2023-04-07T02:46:08;10.00;;;6.40;;
18689;SDS011;9782;52.930;15.562;2023-04-07T02:48:34;13.20;;;6.80;;
18689;SDS011;9782;52.930;15.562;2023-04-07T02:51:01;10.97;;;6.43;;
18689;SDS011;9782;52.930;15.562;2023-04-07T02:53:28;9.23;;;6.00;;
18689;SDS011;9782;52.930;15.562;2023-04-07T02:55:56;9.33;;;6.23;;
18689;SDS011;9782;52.930;15.562;2023-04-07T02:58:23;10.70;;;6.23;;
18689;SDS011;9782;52.930;15.562;2023-04-07T03:00:50;9.53;;;6.03;;
18689;SDS011;9782;52.930;15.562;2023-04-07T03:03:17;11.27;;;6.43;;
18689;SDS011;9782;52.930;15.562;2023-04-07T03:05:43;9.27;;;6.40;;
18689;SDS011;9782;52.930;15.562;2023-04-07T03:08:10;13.90;;;6.50;;
18689;SDS011;9782;52.930;15.562;2023-04-07T03:10:37;11.40;;;6.07;;
18689;SDS011;9782;52.930;15.562;2023-04-07T03:13:05;10.80;;;6.37;;
18689;SDS011;9782;52.930;15.562;2023-04-07T03:15:32;8.83;;;6.10;;
18689;SDS011;9782;52.930;15.562;2023-04-07T03:17:59;8.87;;;5.90;;
18689;SDS011;9782;52.930;15.562;2023-04-07T03:20:27;10.33;;;5.87;;
18689;SDS011;9782;52.930;15.562;2023-04-07T03:22:54;8.30;;;5.97;;
18689;SDS011;9782;52.930;15.562;2023-04-07T03:25:20;10.30;;;6.20;;
18689;SDS011;9782;52.930;15.562;2023-04-07T03:27:47;13.23;;;7.27;;
18689;SDS011;9782;52.930;15.562;2023-04-07T03:30:15;8.37;;;5.87;;
18689;SDS011;9782;52.930;15.562;2023-04-07T03:32:42;10.67;;;6.60;;
18689;SDS011;9782;52.930;15.562;2023-04-07T03:35:09;9.70;;;6.20;;
18689;SDS011;9782;52.930;15.562;2023-04-07T03:37:36;9.33;;;6.40;;
18689;SDS011;9782;52.930;15.562;2023-04-07T03:40:03;9.27;;;6.57;;
18689;SDS011;9782;52.930;15.562;2023-04-07T03:42:31;11.50;;;7.10;;
18689;SDS011;9782;52.930;15.562;2023-04-07T03:44:57;10.03;;;6.37;;
18689;SDS011;9782;52.930;15.562;2023-04-07T03:47:26;10.60;;;6.27;;
18689;SDS011;9782;52.930;15.562;2023-04-07T03:49:52;10.50;;;6.30;;
18689;SDS011;9782;52.930;15.562;2023-04-07T03:52:19;11.60;;;6.20;;
18689;SDS011;9782;52.930;15.562;2023-04-07T03:54:46;11.57;;;6.20;;
18689;SDS011;9782;52.930;15.562;2023-04-07T03:57:13;13.93;;;6.33;;
18689;SDS011;9782;52.930;15.562;2023-04-07T03:59:40;12.13;;;6.50;;
18689;SDS011;9782;52.930;15.562;2023-04-07T04:02:07;12.10;;;6.50;;
18689;SDS011;9782;52.930;15.562;2023-04-07T04:04:35;10.57;;;5.97;;
18689;SDS011;9782;52.930;15.562;2023-04-07T04:07:02;9.57;;;6.30;;
18689;SDS011;9782;52.930;15.562;2023-04-07T04:09:29;8.07;;;5.73;;
18689;SDS011;9782;52.930;15.562;2023-04-07T04:11:56;9.13;;;6.00;;
18689;SDS011;9782;52.930;15.562;2023-04-07T04:14:22;9.53;;;6.47;;
18689;SDS011;9782;52.930;15.562;2023-04-07T04:16:49;10.87;;;5.97;;
18689;SDS011;9782;52.930;15.562;2023-04-07T04:19:16;7.87;;;5.80;;
18689;SDS011;9782;52.930;15.562;2023-04-07T04:21:44;10.07;;;5.77;;
18689;SDS011;9782;52.930;15.562;2023-04-07T04:24:11;10.60;;;5.60;;
18689;SDS011;9782;52.930;15.562;2023-04-07T04:26:38;8.90;;;5.20;;
18689;SDS011;9782;52.930;15.562;2023-04-07T04:29:04;9.80;;;5.47;;
18689;SDS011;9782;52.930;15.562;2023-04-07T04:31:31;10.07;;;5.73;;
18689;SDS011;9782;52.930;15.562;2023-04-07T04:33:58;9.27;;;5.57;;
18689;SDS011;9782;52.930;15.562;2023-04-07T04:36:25;9.77;;;5.90;;
18689;SDS011;9782;52.930;15.562;2023-04-07T04:38:53;8.73;;;5.93;;
18689;SDS011;9782;52.930;15.562;2023-04-07T04:41:20;11.67;;;6.00;;
18689;SDS011;9782;52.930;15.562;2023-04-07T04:43:47;9.47;;;5.77;;
18689;SDS011;9782;52.930;15.562;2023-04-07T04:46:13;10.07;;;5.93;;
18689;SDS011;9782;52.930;15.562;2023-04-07T04:48:40;8.80;;;5.63;;
18689;SDS011;9782;52.930;15.562;2023-04-07T04:51:07;8.23;;;5.20;;
18689;SDS011;9782;52.930;15.562;2023-04-07T04:53:34;8.93;;;5.57;;
18689;SDS011;9782;52.930;15.562;2023-04-07T04:56:02;9.33;;;5.60;;
18689;SDS011;9782;52.930;15.562;2023-04-07T04:58:29;7.90;;;5.30;;
18689;SDS011;9782;52.930;15.562;2023-04-07T05:00:56;7.60;;;4.80;;
18689;SDS011;9782;52.930;15.562;2023-04-07T05:03:24;11.80;;;5.77;;
18689;SDS011;9782;52.930;15.562;2023-04-07T05:05:51;8.17;;;5.23;;
18689;SDS011;9782;52.930;15.562;2023-04-07T05:08:18;13.03;;;6.07;;
18689;SDS011;9782;52.930;15.562;2023-04-07T05:10:45;8.07;;;5.87;;
18689;SDS011;9782;52.930;15.562;2023-04-07T05:13:13;8.47;;;5.50;;
18689;SDS011;9782;52.930;15.562;2023-04-07T05:15:40;8.53;;;4.83;;
18689;SDS011;9782;52.930;15.562;2023-04-07T05:18:07;7.73;;;4.93;;
18689;SDS011;9782;52.930;15.562;2023-04-07T05:20:34;9.50;;;4.97;;
18689;SDS011;9782;52.930;15.562;2023-04-07T05:23:00;7.70;;;4.57;;
18689;SDS011;9782;52.930;15.562;2023-04-07T05:25:27;8.40;;;5.50;;
18689;SDS011;9782;52.930;15.562;2023-04-07T05:27:54;8.43;;;5.30;;
18689;SDS011;9782;52.930;15.562;2023-04-07T05:30:22;9.47;;;5.37;;
18689;SDS011;9782;52.930;15.562;2023-04-07T05:32:49;7.10;;;4.67;;
18689;SDS011;9782;52.930;15.562;2023-04-07T05:35:17;8.10;;;5.20;;
18689;SDS011;9782;52.930;15.562;2023-04-07T05:37:44;9.27;;;5.60;;
18689;SDS011;9782;52.930;15.562;2023-04-07T05:40:11;8.00;;;4.53;;
18689;SDS011;9782;52.930;15.562;2023-04-07T05:42:38;8.97;;;5.37;;
18689;SDS011;9782;52.930;15.562;2023-04-07T05:45:05;9.00;;;5.40;;
18689;SDS011;9782;52.930;15.562;2023-04-07T05:47:34;7.97;;;5.10;;
18689;SDS011;9782;52.930;15.562;2023-04-07T05:50:00;7.93;;;4.70;;
18689;SDS011;9782;52.930;15.562;2023-04-07T05:52:27;7.23;;;4.70;;
18689;SDS011;9782;52.930;15.562;2023-04-07T05:54:54;8.60;;;4.80;;
18689;SDS011;9782;52.930;15.562;2023-04-07T05:57:21;7.00;;;4.87;;
18689;SDS011;9782;52.930;15.562;2023-04-07T05:59:48;7.33;;;4.20;;
18689;SDS011;9782;52.930;15.562;2023-04-07T06:02:15;7.70;;;4.60;;
18689;SDS011;9782;52.930;15.562;2023-04-07T06:04:43;8.27;;;4.17;;
18689;SDS011;9782;52.930;15.562;2023-04-07T06:07:10;5.73;;;3.83;;
18689;SDS011;9782;52.930;15.562;2023-04-07T06:09:37;8.33;;;4.40;;
18689;SDS011;9782;52.930;15.562;2023-04-07T06:12:03;5.73;;;4.30;;
18689;SDS011;9782;52.930;15.562;2023-04-07T06:14:30;6.33;;;3.83;;
18689;SDS011;9782;52.930;15.562;2023-04-07T06:16:58;7.53;;;4.40;;
18689;SDS011;9782;52.930;15.562;2023-04-07T06:19:25;6.10;;;3.60;;
18689;SDS011;9782;52.930;15.562;2023-04-07T06:21:53;6.03;;;4.30;;
18689;SDS011;9782;52.930;15.562;2023-04-07T06:24:20;7.60;;;5.27;;
18689;SDS011;9782;52.930;15.562;2023-04-07T06:26:49;7.30;;;4.80;;
18689;SDS011;9782;52.930;15.562;2023-04-07T06:29:16;6.60;;;4.20;;
18689;SDS011;9782;52.930;15.562;2023-04-07T06:31:43;8.00;;;4.20;;
18689;SDS011;9782;52.930;15.562;2023-04-07T06:34:10;7.30;;;4.23;;
18689;SDS011;9782;52.930;15.562;2023-04-07T06:36:37;7.97;;;3.83;;
18689;SDS011;9782;52.930;15.562;2023-04-07T06:39:05;7.27;;;4.43;;
18689;SDS011;9782;52.930;15.562;2023-04-07T06:41:32;5.90;;;3.93;;
18689;SDS011;9782;52.930;15.562;2023-04-07T06:43:59;4.27;;;3.60;;
18689;SDS011;9782;52.930;15.562;2023-04-07T06:46:25;6.63;;;4.17;;
18689;SDS011;9782;52.930;15.562;2023-04-07T06:48:52;5.60;;;3.60;;
18689;SDS011;9782;52.930;15.562;2023-04-07T06:51:19;5.33;;;3.23;;
18689;SDS011;9782;52.930;15.562;2023-04-07T06:53:46;6.00;;;4.10;;
18689;SDS011;9782;52.930;15.562;2023-04-07T06:56:14;5.30;;;3.30;;
18689;SDS011;9782;52.930;15.562;2023-04-07T06:58:41;6.93;;;3.63;;
18689;SDS011;9782;52.930;15.562;2023-04-07T07:01:08;5.97;;;4.37;;
18689;SDS011;9782;52.930;15.562;2023-04-07T07:03:35;6.70;;;4.10;;
18689;SDS011;9782;52.930;15.562;2023-04-07T07:06:02;3.87;;;2.97;;
18689;SDS011;9782;52.930;15.562;2023-04-07T07:08:28;6.17;;;3.93;;
18689;SDS011;9782;52.930;15.562;2023-04-07T07:10:55;8.10;;;4.03;;
18689;SDS011;9782;52.930;15.562;2023-04-07T07:13:24;7.33;;;4.60;;
18689;SDS011;9782;52.930;15.562;2023-04-07T07:15:51;7.07;;;4.33;;
18689;SDS011;9782;52.930;15.562;2023-04-07T07:18:19;6.43;;;4.50;;
18689;SDS011;9782;52.930;15.562;2023-04-07T07:20:45;6.53;;;4.23;;
18689;SDS011;9782;52.930;15.562;2023-04-07T07:23:12;6.30;;;4.03;;
18689;SDS011;9782;52.930;15.562;2023-04-07T07:25:39;8.77;;;4.53;;
18689;SDS011;9782;52.930;15.562;2023-04-07T07:28:06;8.97;;;4.80;;
18689;SDS011;9782;52.930;15.562;2023-04-07T07:30:35;7.17;;;4.47;;
18689;SDS011;9782;52.930;15.562;2023-04-07T07:33:04;8.50;;;4.37;;
18689;SDS011;9782;52.930;15.562;2023-04-07T07:35:30;7.13;;;4.43;;
18689;SDS011;9782;52.930;15.562;2023-04-07T07:37:57;6.73;;;4.77;;
18689;SDS011;9782;52.930;15.562;2023-04-07T07:40:24;6.23;;;4.40;;
18689;SDS011;9782;52.930;15.562;2023-04-07T07:42:51;5.93;;;3.60;;
18689;SDS011;9782;52.930;15.562;2023-04-07T07:45:17;5.73;;;4.00;;
18689;SDS011;9782;52.930;15.562;2023-04-07T07:47:46;7.73;;;4.37;;
18689;SDS011;9782;52.930;15.562;2023-04-07T07:50:12;7.77;;;4.03;;
18689;SDS011;9782;52.930;15.562;2023-04-07T07:52:39;6.80;;;4.00;;
18689;SDS011;9782;52.930;15.562;2023-04-07T07:55:07;6.57;;;3.87;;
18689;SDS011;9782;52.930;15.562;2023-04-07T07:57:34;5.13;;;3.60;;
18689;SDS011;9782;52.930;15.562;2023-04-07T08:00:01;7.30;;;4.53;;
18689;SDS011;9782;52.930;15.562;2023-04-07T08:02:28;7.10;;;4.40;;
18689;SDS011;9782;52.930;15.562;2023-04-07T08:04:59;5.03;;;3.47;;
18689;SDS011;9782;52.930;15.562;2023-04-07T08:07:26;6.00;;;3.80;;
18689;SDS011;9782;52.930;15.562;2023-04-07T08:09:52;6.50;;;3.90;;
18689;SDS011;9782;52.930;15.562;2023-04-07T08:12:20;6.13;;;3.83;;
18689;SDS011;9782;52.930;15.562;2023-04-07T08:14:47;6.63;;;4.13;;
18689;SDS011;9782;52.930;15.562;2023-04-07T08:17:14;5.60;;;4.20;;
18689;SDS011;9782;52.930;15.562;2023-04-07T08:19:40;6.33;;;4.13;;
18689;SDS011;9782;52.930;15.562;2023-04-07T08:22:09;7.00;;;4.30;;
18689;SDS011;9782;52.930;15.562;2023-04-07T08:24:35;5.47;;;3.70;;
18689;SDS011;9782;52.930;15.562;2023-04-07T08:27:02;7.00;;;4.70;;
18689;SDS011;9782;52.930;15.562;2023-04-07T08:29:30;7.17;;;4.03;;
18689;SDS011;9782;52.930;15.562;2023-04-07T08:31:56;5.90;;;3.83;;
18689;SDS011;9782;52.930;15.562;2023-04-07T08:34:23;5.73;;;3.73;;
18689;SDS011;9782;52.930;15.562;2023-04-07T08:36:50;5.70;;;3.47;;
18689;SDS011;9782;52.930;15.562;2023-04-07T08:39:18;6.13;;;3.50;;
18689;SDS011;9782;52.930;15.562;2023-04-07T08:41:46;6.90;;;4.33;;
18689;SDS011;9782;52.930;15.562;2023-04-07T08:44:15;8.20;;;4.50;;
18689;SDS011;9782;52.930;15.562;2023-04-07T08:46:43;5.00;;;3.73;;
18689;SDS011;9782;52.930;15.562;2023-04-07T08:49:11;7.83;;;3.87;;
18689;SDS011;9782;52.930;15.562;2023-04-07T08:51:41;6.23;;;4.47;;
18689;SDS011;9782;52.930;15.562;2023-04-07T08:54:11;6.80;;;3.90;;
18689;SDS011;9782;52.930;15.562;2023-04-07T08:56:41;5.60;;;3.37;;
18689;SDS011;9782;52.930;15.562;2023-04-07T08:59:09;6.23;;;4.57;;
18689;SDS011;9782;52.930;15.562;2023-04-07T09:01:36;4.57;;;3.00;;
18689;SDS011;9782;52.930;15.562;2023-04-07T09:04:05;9.37;;;5.43;;
18689;SDS011;9782;52.930;15.562;2023-04-07T09:06:32;6.57;;;3.70;;
18689;SDS011;9782;52.930;15.562;2023-04-07T09:09:00;5.93;;;4.13;;
18689;SDS011;9782;52.930;15.562;2023-04-07T09:11:27;8.27;;;4.27;;
18689;SDS011;9782;52.930;15.562;2023-04-07T09:13:56;7.10;;;4.70;;
18689;SDS011;9782;52.930;15.562;2023-04-07T09:16:26;8.77;;;4.67;;
18689;SDS011;9782;52.930;15.562;2023-04-07T09:18:54;7.77;;;4.77;;
18689;SDS011;9782;52.930;15.562;2023-04-07T09:21:21;7.63;;;4.93;;
18689;SDS011;9782;52.930;15.562;2023-04-07T09:23:48;7.60;;;4.13;;
18689;SDS011;9782;52.930;15.562;2023-04-07T09:26:20;6.03;;;3.70;;
18689;SDS011;9782;52.930;15.562;2023-04-07T09:28:49;7.67;;;4.40;;
18689;SDS011;9782;52.930;15.562;2023-04-07T09:31:19;7.97;;;4.70;;
18689;SDS011;9782;52.930;15.562;2023-04-07T09:33:46;7.17;;;4.20;;
18689;SDS011;9782;52.930;15.562;2023-04-07T09:36:14;7.77;;;4.67;;
18689;SDS011;9782;52.930;15.562;2023-04-07T09:38:42;9.43;;;4.90;;
18689;SDS011;9782;52.930;15.562;2023-04-07T09:41:10;8.47;;;5.13;;
18689;SDS011;9782;52.930;15.562;2023-04-07T09:43:38;9.97;;;6.13;;
18689;SDS011;9782;52.930;15.562;2023-04-07T09:46:07;9.63;;;5.87;;
18689;SDS011;9782;52.930;15.562;2023-04-07T09:48:40;10.07;;;6.40;;
18689;SDS011;9782;52.930;15.562;2023-04-07T09:51:08;7.33;;;4.13;;
18689;SDS011;9782;52.930;15.562;2023-04-07T09:53:43;5.57;;;3.87;;
18689;SDS011;9782;52.930;15.562;2023-04-07T09:56:11;6.03;;;3.30;;
18689;SDS011;9782;52.930;15.562;2023-04-07T09:58:40;9.77;;;6.33;;
18689;SDS011;9782;52.930;15.562;2023-04-07T10:01:08;9.97;;;4.83;;
18689;SDS011;9782;52.930;15.562;2023-04-07T10:03:35;9.00;;;5.30;;
18689;SDS011;9782;52.930;15.562;2023-04-07T10:06:05;9.03;;;4.47;;
18689;SDS011;9782;52.930;15.562;2023-04-07T10:08:33;7.50;;;4.57;;
18689;SDS011;9782;52.930;15.562;2023-04-07T10:11:02;9.30;;;5.47;;
18689;SDS011;9782;52.930;15.562;2023-04-07T10:13:29;6.57;;;4.77;;
18689;SDS011;9782;52.930;15.562;2023-04-07T10:15:57;8.47;;;4.70;;
18689;SDS011;9782;52.930;15.562;2023-04-07T10:18:25;8.70;;;5.20;;
18689;SDS011;9782;52.930;15.562;2023-04-07T10:20:56;8.10;;;4.93;;
18689;SDS011;9782;52.930;15.562;2023-04-07T10:23:30;9.47;;;5.60;;
18689;SDS011;9782;52.930;15.562;2023-04-07T10:26:02;9.90;;;4.70;;
18689;SDS011;9782;52.930;15.562;2023-04-07T10:28:32;8.63;;;5.20;;
18689;SDS011;9782;52.930;15.562;2023-04-07T10:31:02;9.07;;;5.63;;
18689;SDS011;9782;52.930;15.562;2023-04-07T10:33:45;10.90;;;5.50;;
18689;SDS011;9782;52.930;15.562;2023-04-07T10:36:14;8.80;;;4.57;;
18689;SDS011;9782;52.930;15.562;2023-04-07T10:38:42;10.17;;;5.67;;
18689;SDS011;9782;52.930;15.562;2023-04-07T10:41:45;9.20;;;5.43;;
18689;SDS011;9782;52.930;15.562;2023-04-07T10:47:12;9.90;;;5.20;;
18689;SDS011;9782;52.930;15.562;2023-04-07T10:49:39;9.33;;;5.00;;
18689;SDS011;9782;52.930;15.562;2023-04-07T10:52:42;9.70;;;4.90;;
18689;SDS011;9782;52.930;15.562;2023-04-07T10:58:13;8.80;;;5.03;;
18689;SDS011;9782;52.930;15.562;2023-04-07T11:03:53;8.37;;;4.70;;
18689;SDS011;9782;52.930;15.562;2023-04-07T11:06:24;9.07;;;4.70;;
18689;SDS011;9782;52.930;15.562;2023-04-07T11:08:52;8.50;;;4.63;;
18689;SDS011;9782;52.930;15.562;2023-04-07T11:11:36;10.77;;;5.33;;
18689;SDS011;9782;52.930;15.562;2023-04-07T11:14:04;9.43;;;5.13;;
18689;SDS011;9782;52.930;15.562;2023-04-07T11:16:35;8.90;;;5.30;;
18689;SDS011;9782;52.930;15.562;2023-04-07T11:19:04;9.00;;;4.53;;
18689;SDS011;9782;52.930;15.562;2023-04-07T11:21:31;6.53;;;3.70;;
18689;SDS011;9782;52.930;15.562;2023-04-07T11:23:58;8.23;;;4.50;;
18689;SDS011;9782;52.930;15.562;2023-04-07T11:26:25;8.67;;;4.97;;
18689;SDS011;9782;52.930;15.562;2023-04-07T11:28:54;8.13;;;4.93;;
18689;SDS011;9782;52.930;15.562;2023-04-07T11:31:23;10.00;;;5.73;;
18689;SDS011;9782;52.930;15.562;2023-04-07T11:33:53;9.00;;;5.00;;
18689;SDS011;9782;52.930;15.562;2023-04-07T11:36:26;8.83;;;5.00;;
18689;SDS011;9782;52.930;15.562;2023-04-07T11:38:53;9.70;;;4.83;;
18689;SDS011;9782;52.930;15.562;2023-04-07T11:41:21;10.10;;;5.70;;
18689;SDS011;9782;52.930;15.562;2023-04-07T11:43:48;8.87;;;5.80;;
18689;SDS011;9782;52.930;15.562;2023-04-07T11:46:29;8.83;;;5.83;;
18689;SDS011;9782;52.930;15.562;2023-04-07T11:49:06;7.50;;;4.63;;
18689;SDS011;9782;52.930;15.562;2023-04-07T11:51:34;7.47;;;4.53;;
18689;SDS011;9782;52.930;15.562;2023-04-07T11:54:01;8.00;;;5.13;;
18689;SDS011;9782;52.930;15.562;2023-04-07T11:56:28;10.83;;;6.33;;
18689;SDS011;9782;52.930;15.562;2023-04-07T11:58:55;8.00;;;4.57;;
18689;SDS011;9782;52.930;15.562;2023-04-07T12:01:22;6.47;;;4.77;;
18689;SDS011;9782;52.930;15.562;2023-04-07T12:03:57;7.37;;;4.40;;
18689;SDS011;9782;52.930;15.562;2023-04-07T12:06:26;6.43;;;4.40;;
18689;SDS011;9782;52.930;15.562;2023-04-07T12:08:54;6.70;;;4.70;;
18689;SDS011;9782;52.930;15.562;2023-04-07T12:11:21;7.93;;;4.87;;
18689;SDS011;9782;52.930;15.562;2023-04-07T12:13:49;6.93;;;4.50;;
18689;SDS011;9782;52.930;15.562;2023-04-07T12:16:15;6.47;;;4.57;;
18689;SDS011;9782;52.930;15.562;2023-04-07T12:18:43;7.37;;;4.60;;
18689;SDS011;9782;52.930;15.562;2023-04-07T12:21:11;5.70;;;3.83;;
18689;SDS011;9782;52.930;15.562;2023-04-07T12:23:38;7.57;;;5.23;;
18689;SDS011;9782;52.930;15.562;2023-04-07T12:26:05;7.50;;;4.80;;
18689;SDS011;9782;52.930;15.562;2023-04-07T12:28:32;7.17;;;5.37;;
18689;SDS011;9782;52.930;15.562;2023-04-07T12:30:58;6.13;;;4.03;;
18689;SDS011;9782;52.930;15.562;2023-04-07T12:33:25;7.33;;;5.10;;
18689;SDS011;9782;52.930;15.562;2023-04-07T12:35:52;4.90;;;3.60;;
18689;SDS011;9782;52.930;15.562;2023-04-07T12:38:20;5.80;;;3.83;;
18689;SDS011;9782;52.930;15.562;2023-04-07T12:40:47;4.37;;;2.77;;
18689;SDS011;9782;52.930;15.562;2023-04-07T12:43:14;4.63;;;2.63;;
18689;SDS011;9782;52.930;15.562;2023-04-07T12:45:41;5.93;;;3.70;;
18689;SDS011;9782;52.930;15.562;2023-04-07T12:48:08;6.97;;;4.13;;
18689;SDS011;9782;52.930;15.562;2023-04-07T12:50:35;7.90;;;5.07;;
18689;SDS011;9782;52.930;15.562;2023-04-07T12:53:01;8.43;;;4.43;;
18689;SDS011;9782;52.930;15.562;2023-04-07T12:55:30;7.83;;;5.17;;
18689;SDS011;9782;52.930;15.562;2023-04-07T12:57:59;11.83;;;7.03;;
18689;SDS011;9782;52.930;15.562;2023-04-07T13:00:26;9.97;;;5.20;;
18689;SDS011;9782;52.930;15.562;2023-04-07T13:02:53;7.27;;;4.80;;
18689;SDS011;9782;52.930;15.562;2023-04-07T13:05:20;7.57;;;5.20;;
18689;SDS011;9782;52.930;15.562;2023-04-07T13:07:47;9.23;;;6.00;;
18689;SDS011;9782;52.930;15.562;2023-04-07T13:10:14;8.10;;;5.73;;
18689;SDS011;9782;52.930;15.562;2023-04-07T13:12:42;10.83;;;6.97;;
18689;SDS011;9782;52.930;15.562;2023-04-07T13:15:09;14.70;;;9.43;;
18689;SDS011;9782;52.930;15.562;2023-04-07T13:17:36;11.00;;;7.00;;
18689;SDS011;9782;52.930;15.562;2023-04-07T13:20:03;9.57;;;5.87;;
18689;SDS011;9782;52.930;15.562;2023-04-07T13:22:31;9.47;;;5.47;;
18689;SDS011;9782;52.930;15.562;2023-04-07T13:24:58;8.13;;;5.70;;
18689;SDS011;9782;52.930;15.562;2023-04-07T13:27:25;7.17;;;4.03;;
18689;SDS011;9782;52.930;15.562;2023-04-07T13:29:53;12.57;;;9.37;;
18689;SDS011;9782;52.930;15.562;2023-04-07T13:32:20;7.73;;;4.77;;
18689;SDS011;9782;52.930;15.562;2023-04-07T13:34:47;9.87;;;6.50;;
18689;SDS011;9782;52.930;15.562;2023-04-07T13:37:14;8.50;;;4.93;;
18689;SDS011;9782;52.930;15.562;2023-04-07T13:39:43;9.77;;;5.43;;
18689;SDS011;9782;52.930;15.562;2023-04-07T13:42:10;7.17;;;4.90;;
18689;SDS011;9782;52.930;15.562;2023-04-07T13:44:40;9.33;;;5.87;;
18689;SDS011;9782;52.930;15.562;2023-04-07T13:47:10;8.67;;;5.23;;
18689;SDS011;9782;52.930;15.562;2023-04-07T13:49:39;11.27;;;5.87;;
18689;SDS011;9782;52.930;15.562;2023-04-07T13:52:05;7.67;;;5.20;;
18689;SDS011;9782;52.930;15.562;2023-04-07T13:54:32;11.00;;;6.07;;
18689;SDS011;9782;52.930;15.562;2023-04-07T13:56:59;8.07;;;5.37;;
18689;SDS011;9782;52.930;15.562;2023-04-07T13:59:26;13.23;;;6.60;;
18689;SDS011;9782;52.930;15.562;2023-04-07T14:01:52;11.80;;;6.73;;
18689;SDS011;9782;52.930;15.562;2023-04-07T14:04:21;10.90;;;6.27;;
18689;SDS011;9782;52.930;15.562;2023-04-07T14:06:48;10.00;;;6.00;;
18689;SDS011;9782;52.930;15.562;2023-04-07T14:09:15;9.30;;;5.63;;
18689;SDS011;9782;52.930;15.562;2023-04-07T14:11:42;12.53;;;6.07;;
18689;SDS011;9782;52.930;15.562;2023-04-07T14:14:08;13.13;;;6.83;;
18689;SDS011;9782;52.930;15.562;2023-04-07T14:16:35;18.77;;;10.03;;
18689;SDS011;9782;52.930;15.562;2023-04-07T14:19:02;30.80;;;15.83;;
18689;SDS011;9782;52.930;15.562;2023-04-07T14:21:30;20.97;;;12.20;;
18689;SDS011;9782;52.930;15.562;2023-04-07T14:23:57;10.90;;;6.50;;
18689;SDS011;9782;52.930;15.562;2023-04-07T14:26:24;10.27;;;6.00;;
18689;SDS011;9782;52.930;15.562;2023-04-07T14:28:51;14.70;;;7.90;;
18689;SDS011;9782;52.930;15.562;2023-04-07T14:31:18;15.10;;;8.03;;
18689;SDS011;9782;52.930;15.562;2023-04-07T14:33:44;12.73;;;7.87;;
18689;SDS011;9782;52.930;15.562;2023-04-07T14:36:12;13.30;;;7.80;;
18689;SDS011;9782;52.930;15.562;2023-04-07T14:38:42;10.43;;;5.77;;
18689;SDS011;9782;52.930;15.562;2023-04-07T14:41:08;10.53;;;5.87;;
18689;SDS011;9782;52.930;15.562;2023-04-07T14:43:35;18.53;;;9.57;;
18689;SDS011;9782;52.930;15.562;2023-04-07T14:46:02;15.43;;;8.10;;
18689;SDS011;9782;52.930;15.562;2023-04-07T14:48:29;12.87;;;7.10;;
18689;SDS011;9782;52.930;15.562;2023-04-07T14:50:56;11.77;;;7.80;;
18689;SDS011;9782;52.930;15.562;2023-04-07T14:53:23;10.90;;;7.13;;
18689;SDS011;9782;52.930;15.562;2023-04-07T14:55:52;18.17;;;8.17;;
18689;SDS011;9782;52.930;15.562;2023-04-07T14:58:18;14.40;;;7.77;;
18689;SDS011;9782;52.930;15.562;2023-04-07T15:00:45;16.10;;;10.20;;